Time;durP1;ratioP1;P1;durP2;ratioP2;P2;SDS_P1;SDS_P2;PMS_P1;PMS_P2;Temp;Humidity;BMP_temperature;BMP_pressure;BME280_temperature;BME280_humidity;BME280_pressure;Samples;Min_cycle;Max_cycle;Signal;HPM_P1;HPM_P2
2023/03/20 00:01:40;;;;;;;;;;;;;;;8.13;53.54;94951.41;5138725;23;19924;-55
2023/03/20 00:03:41;;;;;;;;;;;;;;;8.16;53.83;94956.34;5166086;23;19927;-58
2023/03/20 00:05:43;;;;;;;;;;;;;;;8.14;53.16;94946.06;5164866;23;19924;-56
2023/03/20 00:07:45;;;;;;;;;;;;;;;8.10;54.02;94949.91;5165671;23;20370;-55
2023/03/20 00:09:47;;;;;;;;;;;;;;;8.04;54.11;94949.63;5165142;23;19950;-57
2023/03/20 00:11:49;;;;;;;;;;;;;;;8.01;53.50;94940.28;5166248;23;20314;-56
2023/03/20 00:13:51;;;;;;;;;;;;;;;8.00;53.88;94952.53;5139015;23;20019;-59
2023/03/20 00:15:53;;;;;;;;;;;;;;;7.87;54.67;94943.28;5166080;23;19919;-58
2023/03/20 00:17:55;;;;;;;;;;;;;;;7.76;55.21;94939.84;5139143;23;19954;-58
2023/03/20 00:19:57;;;;;;;;;;;;;;;7.72;55.08;94938.50;5164808;23;19977;-58
2023/03/20 00:21:59;;;;;;;;;;;;;;;7.72;55.23;94943.72;5165404;23;20309;-56
2023/03/20 00:24:01;;;;;;;;;;;;;;;7.71;55.58;94939.44;5165002;23;19940;-58
2023/03/20 00:26:02;;;;;;;;;;;;;;;7.76;55.42;94944.25;5166465;23;20239;-58
2023/03/20 00:28:22;;;;;;;;;;;;;;;7.79;55.45;94936.16;5166314;23;19920;-59
2023/03/20 00:30:27;;;;;;;;;;;;;;;7.76;55.90;94933.81;5165744;23;20334;-58
2023/03/20 00:32:28;;;;;;;;;;;;;;;7.77;55.32;94933.69;5166010;23;19927;-59
2023/03/20 00:34:31;;;;;;;;;;;;;;;7.80;55.31;94937.81;5165565;23;19924;-57
2023/03/20 00:36:33;;;;;;;;;;;;;;;7.83;55.69;94934.94;5137772;23;19958;-57
2023/03/20 00:38:34;;;;;;;;;;;;;;;7.84;55.41;94931.34;5164918;23;19919;-59
2023/03/20 00:40:36;;;;;;;;;;;;;;;7.82;55.91;94930.66;5165808;23;20017;-60
2023/03/20 00:42:37;;;;;;;;;;;;;;;7.72;55.85;94928.06;5166381;23;19962;-59
2023/03/20 00:44:39;;;;;;;;;;;;;;;7.71;56.11;94933.41;5138622;23;19963;-58
2023/03/20 00:46:42;;;;;;;;;;;;;;;7.63;55.68;94928.03;5165466;23;19959;-59
2023/03/20 00:48:44;;;;;;;;;;;;;;;7.54;56.08;94927.88;5165792;23;19963;-54
2023/03/20 00:50:45;;;;;;;;;;;;;;;7.48;56.55;94925.81;5164535;23;19919;-55
2023/03/20 00:52:47;;;;;;;;;;;;;;;7.44;56.81;94926.22;5165780;23;19920;-57
2023/03/20 00:54:49;;;;;;;;;;;;;;;7.41;56.31;94934.31;5165148;23;19920;-60
2023/03/20 00:57:00;;;;;;;;;;;;;;;7.37;56.78;94929.34;5165551;23;19923;-60
2023/03/20 00:59:02;;;;;;;;;;;;;;;7.36;57.05;94927.72;5139476;23;19920;-58
2023/03/20 01:01:04;;;;;;;;;;;;;;;7.39;56.91;94922.22;5165693;23;19920;-60
2023/03/20 01:03:18;;;;;;;;;;;;;;;7.44;56.60;94918.41;5165302;23;19998;-58
2023/03/20 01:05:20;;;;;;;;;;;;;;;7.43;56.92;94920.19;5164735;23;19924;-59
2023/03/20 01:07:21;;;;;;;;;;;;;;;7.43;56.84;94914.16;5165236;23;19924;-56
2023/03/20 01:09:23;;;;;;;;;;;;;;;7.43;57.03;94916.78;5165123;23;20189;-60
2023/03/20 01:11:24;;;;;;;;;;;;;;;7.47;56.79;94912.94;5165563;23;20321;-59
2023/03/20 01:13:27;;;;;;;;;;;;;;;7.48;57.04;94912.78;5165702;23;19927;-59
2023/03/20 01:15:31;;;;;;;;;;;;;;;7.50;56.82;94904.84;5165992;23;19920;-59
2023/03/20 01:17:33;;;;;;;;;;;;;;;7.46;56.85;94904.28;5165559;23;19923;-59
2023/03/20 01:19:35;;;;;;;;;;;;;;;7.43;57.02;94907.16;5165839;23;19927;-60
2023/03/20 01:21:36;;;;;;;;;;;;;;;7.43;56.70;94898.53;5163687;23;19966;-58
2023/03/20 01:23:38;;;;;;;;;;;;;;;7.47;56.67;94898.13;5165476;23;20466;-59
2023/03/20 01:25:39;;;;;;;;;;;;;;;7.51;56.30;94907.31;5166263;23;19924;-59
2023/03/20 01:27:46;;;;;;;;;;;;;;;7.52;56.21;94905.53;5139100;23;19920;-61
2023/03/20 01:29:47;;;;;;;;;;;;;;;7.50;56.25;94904.84;5165717;23;19919;-58
2023/03/20 01:31:49;;;;;;;;;;;;;;;7.49;56.39;94900.59;5165968;23;19970;-60
2023/03/20 01:33:51;;;;;;;;;;;;;;;7.47;57.04;94905.13;5165446;23;20253;-58
2023/03/20 01:35:52;;;;;;;;;;;;;;;7.47;57.24;94902.50;5165031;23;19924;-60
2023/03/20 01:37:55;;;;;;;;;;;;;;;7.45;57.31;94899.22;5165368;23;19919;-58
2023/03/20 01:39:56;;;;;;;;;;;;;;;7.41;57.50;94906.47;5165382;23;20636;-60
2023/03/20 01:41:58;;;;;;;;;;;;;;;7.34;57.23;94911.41;5165476;23;19931;-58
2023/03/20 01:44:00;;;;;;;;;;;;;;;7.31;57.64;94916.03;5165194;23;19924;-57
2023/03/20 01:46:08;;;;;;;;;;;;;;;7.21;57.17;94916.03;5139037;23;19920;-62
2023/03/20 01:48:16;;;;;;;;;;;;;;;7.16;57.56;94915.59;5165312;23;19923;-57
2023/03/20 01:50:21;;;;;;;;;;;;;;;7.01;57.83;94916.91;5138491;23;20227;-55
2023/03/20 01:52:22;;;;;;;;;;;;;;;6.80;58.10;94919.56;5166947;23;19982;-56
2023/03/20 01:54:24;;;;;;;;;;;;;;;6.72;58.46;94921.06;5139593;23;19924;-55
2023/03/20 01:56:25;;;;;;;;;;;;;;;6.71;58.28;94921.19;5167510;23;19924;-58
2023/03/20 01:58:30;;;;;;;;;;;;;;;6.75;58.70;94913.00;5140697;23;20325;-55
2023/03/20 02:00:32;;;;;;;;;;;;;;;6.79;58.37;94918.75;5140293;23;19920;-54
2023/03/20 02:02:33;;;;;;;;;;;;;;;6.79;58.32;94913.53;5167209;23;19930;-53
2023/03/20 02:04:36;;;;;;;;;;;;;;;6.81;58.38;94916.03;5166846;23;19926;-55
2023/03/20 02:06:39;;;;;;;;;;;;;;;6.79;58.90;94908.34;5164599;23;19920;-57
2023/03/20 02:08:47;;;;;;;;;;;;;;;6.84;58.56;94914.00;5166389;23;19931;-60
2023/03/20 02:10:49;;;;;;;;;;;;;;;6.90;58.69;94905.63;5166877;23;19926;-59
2023/03/20 02:12:51;;;;;;;;;;;;;;;6.88;58.67;94909.31;5165549;23;20338;-59
2023/03/20 02:14:52;;;;;;;;;;;;;;;6.88;58.88;94906.72;5166799;23;19999;-58
2023/03/20 02:16:54;;;;;;;;;;;;;;;6.91;58.83;94901.28;5166785;23;19919;-56
2023/03/20 02:18:55;;;;;;;;;;;;;;;6.90;59.31;94904.81;5167185;23;20514;-55
2023/03/20 02:21:09;;;;;;;;;;;;;;;6.87;58.77;94908.50;5165562;23;20323;-58
2023/03/20 02:23:23;;;;;;;;;;;;;;;6.89;58.80;94903.19;5165690;23;20258;-60
2023/03/20 02:25:36;;;;;;;;;;;;;;;6.86;58.97;94909.47;5166929;23;19919;-56
2023/03/20 02:27:41;;;;;;;;;;;;;;;6.87;59.21;94903.31;5166879;23;20277;-53
2023/03/20 02:29:52;;;;;;;;;;;;;;;6.89;58.96;94911.00;5139687;23;19992;-58
2023/03/20 02:31:54;;;;;;;;;;;;;;;6.95;58.79;94913.06;5166524;23;19985;-57
2023/03/20 02:34:22;;;;;;;;;;;;;;;6.96;58.37;94912.09;5160786;23;19995;-58
2023/03/20 02:36:26;;;;;;;;;;;;;;;6.97;58.52;94911.97;5108512;23;19931;-60
2023/03/20 02:38:46;;;;;;;;;;;;;;;6.96;58.58;94909.50;5140796;23;19920;-58
2023/03/20 02:41:00;;;;;;;;;;;;;;;6.94;58.92;94914.84;5141573;23;19959;-59
2023/03/20 02:43:03;;;;;;;;;;;;;;;6.91;58.87;94904.69;5141984;23;20335;-59
2023/03/20 02:45:17;;;;;;;;;;;;;;;6.88;58.94;94899.75;5114487;23;19927;-58
2023/03/20 02:47:21;;;;;;;;;;;;;;;6.91;58.99;94909.91;5141433;23;19943;-59
2023/03/20 02:49:30;;;;;;;;;;;;;;;6.91;58.66;94904.69;5141744;23;19919;-56
2023/03/20 02:51:35;;;;;;;;;;;;;;;6.93;58.53;94900.19;5113520;23;19921;-57
2023/03/20 02:54:06;;;;;;;;;;;;;;;6.92;58.62;94901.13;5141028;23;19920;-58
2023/03/20 02:56:07;;;;;;;;;;;;;;;6.94;58.64;94898.38;5089125;23;20059;-56
2023/03/20 02:58:08;;;;;;;;;;;;;;;6.94;58.36;94891.41;5141702;23;19932;-59
2023/03/20 03:00:22;;;;;;;;;;;;;;;6.96;58.40;94893.88;5141424;23;20246;-58
2023/03/20 03:02:27;;;;;;;;;;;;;;;6.98;58.06;94895.38;5114748;23;19927;-56
2023/03/20 03:04:30;;;;;;;;;;;;;;;6.94;58.19;94890.56;5141242;23;19920;-57
2023/03/20 03:06:32;;;;;;;;;;;;;;;6.87;58.36;94898.09;5113375;23;19924;-55
2023/03/20 03:08:36;;;;;;;;;;;;;;;6.91;58.24;94896.88;5114705;23;19971;-57
2023/03/20 03:10:39;;;;;;;;;;;;;;;6.90;58.12;94897.81;5114832;23;20280;-59
2023/03/20 03:12:42;;;;;;;;;;;;;;;6.84;58.35;94890.56;5141361;23;19999;-58
2023/03/20 03:14:51;;;;;;;;;;;;;;;6.79;58.83;94899.72;5114854;23;19921;-57
2023/03/20 03:16:52;;;;;;;;;;;;;;;6.68;59.19;94893.63;5115251;23;20334;-58
2023/03/20 03:19:01;;;;;;;;;;;;;;;6.62;59.32;94891.53;5114670;23;19971;-58
2023/03/20 03:21:02;;;;;;;;;;;;;;;6.55;59.20;94888.63;5113555;23;20379;-58
2023/03/20 03:23:04;;;;;;;;;;;;;;;6.54;59.15;94888.78;5113320;23;19941;-56
2023/03/20 03:25:08;;;;;;;;;;;;;;;6.48;59.42;94884.09;5141396;23;19947;-59
2023/03/20 03:27:19;;;;;;;;;;;;;;;6.45;59.68;94887.75;5115074;23;20399;-59
2023/03/20 03:29:21;;;;;;;;;;;;;;;6.46;59.78;94892.03;5141161;23;19928;-58
2023/03/20 03:31:23;;;;;;;;;;;;;;;6.44;59.59;94893.13;5114780;23;20022;-59
2023/03/20 03:33:27;;;;;;;;;;;;;;;6.39;59.88;94888.28;5141066;23;20222;-59
2023/03/20 03:35:30;;;;;;;;;;;;;;;6.38;59.88;94899.66;5089420;23;19960;-56
2023/03/20 03:37:40;;;;;;;;;;;;;;;6.43;59.67;94899.25;5140730;23;19970;-57
2023/03/20 03:39:47;;;;;;;;;;;;;;;6.46;59.96;94899.84;5114225;23;19920;-59
2023/03/20 03:41:52;;;;;;;;;;;;;;;6.49;59.88;94896.97;5115062;23;19920;-56
2023/03/20 03:43:53;;;;;;;;;;;;;;;6.51;60.02;94900.25;5141382;23;19982;-58
2023/03/20 03:46:16;;;;;;;;;;;;;;;6.52;59.90;94894.13;5140733;23;19991;-55
2023/03/20 03:48:19;;;;;;;;;;;;;;;6.55;59.16;94891.25;5115140;23;20502;-57
2023/03/20 03:50:25;;;;;;;;;;;;;;;6.53;58.82;94887.94;5113010;23;20011;-54
2023/03/20 03:52:27;;;;;;;;;;;;;;;6.49;58.74;94890.94;5114432;23;19924;-58
2023/03/20 03:54:33;;;;;;;;;;;;;;;6.53;58.82;94892.31;5140081;23;19920;-59
2023/03/20 03:56:35;;;;;;;;;;;;;;;6.59;58.73;94883.19;5141434;23;20266;-58
2023/03/20 03:58:43;;;;;;;;;;;;;;;6.59;58.69;94880.59;5141051;23;20515;-55
2023/03/20 04:00:46;;;;;;;;;;;;;;;6.56;58.80;94882.50;5114684;23;19955;-55
2023/03/20 04:02:49;;;;;;;;;;;;;;;6.57;58.85;94880.72;5141369;23;19982;-57
2023/03/20 04:04:51;;;;;;;;;;;;;;;6.61;59.26;94889.09;5112993;23;19978;-55
2023/03/20 04:06:53;;;;;;;;;;;;;;;6.55;59.56;94885.22;5140181;23;19920;-56
2023/03/20 04:08:55;;;;;;;;;;;;;;;6.50;59.32;94882.19;5140580;23;19920;-57
2023/03/20 04:10:56;;;;;;;;;;;;;;;6.49;59.56;94881.34;5140431;23;19970;-59
2023/03/20 04:12:58;;;;;;;;;;;;;;;6.44;60.05;94878.31;5140804;23;19927;-59
2023/03/20 04:15:00;;;;;;;;;;;;;;;6.41;59.90;94872.53;5140675;23;19931;-58
2023/03/20 04:17:03;;;;;;;;;;;;;;;6.40;60.36;94876.09;5140852;23;19971;-60
2023/03/20 04:19:05;;;;;;;;;;;;;;;6.39;60.42;94870.09;5140664;23;19939;-56
2023/03/20 04:21:06;;;;;;;;;;;;;;;6.32;60.33;94868.94;5139648;23;19951;-59
2023/03/20 04:23:08;;;;;;;;;;;;;;;6.34;60.36;94865.25;5139551;23;19924;-54
2023/03/20 04:25:15;;;;;;;;;;;;;;;6.31;60.23;94867.28;5141041;23;19957;-55
2023/03/20 04:27:16;;;;;;;;;;;;;;;6.26;60.32;94866.84;5115056;23;19999;-59
2023/03/20 04:29:18;;;;;;;;;;;;;;;6.27;60.71;94865.91;5140650;23;19920;-57
2023/03/20 04:31:19;;;;;;;;;;;;;;;6.27;60.91;94871.09;5139856;23;19942;-58
2023/03/20 04:33:21;;;;;;;;;;;;;;;6.29;60.74;94874.41;5141101;23;19928;-55
2023/03/20 04:35:23;;;;;;;;;;;;;;;6.30;60.65;94870.84;5139506;23;19986;-57
2023/03/20 04:37:24;;;;;;;;;;;;;;;6.31;60.51;94872.50;5140316;23;19920;-55
2023/03/20 04:39:26;;;;;;;;;;;;;;;6.30;60.89;94873.44;5139766;23;19974;-55
2023/03/20 04:41:28;;;;;;;;;;;;;;;6.34;60.76;94878.25;5140689;23;19920;-58
2023/03/20 04:43:29;;;;;;;;;;;;;;;6.37;60.29;94882.41;5140899;23;19919;-59
2023/03/20 04:45:31;;;;;;;;;;;;;;;6.41;60.27;94894.19;5140306;23;20313;-57
2023/03/20 04:47:32;;;;;;;;;;;;;;;6.45;60.26;94894.75;5140476;23;20478;-58
2023/03/20 04:49:34;;;;;;;;;;;;;;;6.51;59.61;94900.25;5140309;23;19983;-58
2023/03/20 04:51:35;;;;;;;;;;;;;;;6.51;59.86;94902.84;5138993;23;20335;-56
2023/03/20 04:53:37;;;;;;;;;;;;;;;6.51;59.90;94908.06;5140116;23;19966;-56
2023/03/20 04:55:38;;;;;;;;;;;;;;;6.51;59.90;94910.66;5139341;23;19975;-56
2023/03/20 04:57:40;;;;;;;;;;;;;;;6.26;60.02;94909.31;5140990;23;20268;-55
2023/03/20 04:59:41;;;;;;;;;;;;;;;6.26;60.93;94914.50;5113918;23;19955;-57
2023/03/20 05:01:43;;;;;;;;;;;;;;;6.34;60.51;94912.06;5139675;23;19926;-59
2023/03/20 05:03:45;;;;;;;;;;;;;;;6.39;60.36;94908.25;5140761;23;19951;-56
2023/03/20 05:05:47;;;;;;;;;;;;;;;6.48;60.45;94910.13;5139105;23;19919;-58
2023/03/20 05:07:48;;;;;;;;;;;;;;;6.58;59.96;94908.38;5140316;23;19927;-57
2023/03/20 05:09:50;;;;;;;;;;;;;;;6.58;59.60;94910.97;5139834;23;19939;-59
2023/03/20 05:11:51;;;;;;;;;;;;;;;6.54;60.24;94910.44;5140158;23;19924;-59
2023/03/20 05:13:53;;;;;;;;;;;;;;;6.51;60.21;94908.06;5140848;23;19924;-57
2023/03/20 05:15:55;;;;;;;;;;;;;;;6.51;60.29;94907.25;5140287;23;20006;-57
2023/03/20 05:17:57;;;;;;;;;;;;;;;6.50;59.91;94919.44;5140598;23;20317;-60
2023/03/20 05:19:58;;;;;;;;;;;;;;;6.44;60.23;94917.34;5113280;23;20241;-61
2023/03/20 05:22:00;;;;;;;;;;;;;;;6.38;60.57;94917.84;5140199;23;20347;-59
2023/03/20 05:24:02;;;;;;;;;;;;;;;6.24;60.96;94919.03;5140483;23;19924;-57
2023/03/20 05:26:03;;;;;;;;;;;;;;;6.00;60.57;94926.22;5142701;23;20323;-57
2023/03/20 05:28:05;;;;;;;;;;;;;;;5.92;61.22;94930.25;5142289;23;19946;-55
2023/03/20 05:30:07;;;;;;;;;;;;;;;5.99;61.32;94925.41;5141632;23;19951;-59
2023/03/20 05:32:08;;;;;;;;;;;;;;;6.12;61.23;94920.84;5142050;23;19920;-58
2023/03/20 05:34:10;;;;;;;;;;;;;;;6.33;60.80;94922.63;5115811;23;20011;-58
2023/03/20 05:36:11;;;;;;;;;;;;;;;6.51;60.06;94921.06;5141063;23;20007;-59
2023/03/20 05:38:13;;;;;;;;;;;;;;;6.66;59.58;94918.97;5141237;23;19938;-58
2023/03/20 05:40:15;;;;;;;;;;;;;;;6.81;59.63;94916.84;5142608;23;19924;-58
2023/03/20 05:42:16;;;;;;;;;;;;;;;6.92;59.18;94924.56;5142483;23;20353;-60
2023/03/20 05:44:18;;;;;;;;;;;;;;;7.06;58.85;94927.78;5142237;23;19970;-60
2023/03/20 05:46:20;;;;;;;;;;;;;;;7.12;58.78;94919.41;5141899;23;20447;-56
2023/03/20 05:48:22;;;;;;;;;;;;;;;7.20;57.74;94923.97;5142143;23;19920;-59
2023/03/20 05:50:23;;;;;;;;;;;;;;;7.30;57.80;94925.66;5140048;23;19927;-58
2023/03/20 05:52:25;;;;;;;;;;;;;;;7.34;57.76;94927.03;5141885;23;20538;-57
2023/03/20 05:54:27;;;;;;;;;;;;;;;7.47;56.87;94923.38;5141521;23;20492;-54
2023/03/20 05:56:28;;;;;;;;;;;;;;;7.59;57.04;94927.47;5142139;23;19920;-57
2023/03/20 05:58:30;;;;;;;;;;;;;;;7.72;56.42;94933.28;5115626;23;19924;-60
2023/03/20 06:00:32;;;;;;;;;;;;;;;7.79;56.97;94930.94;5142075;23;19924;-57
2023/03/20 06:02:33;;;;;;;;;;;;;;;7.88;56.03;94926.69;5142036;23;19927;-60
2023/03/20 06:04:36;;;;;;;;;;;;;;;7.95;56.05;94931.22;5141913;23;19928;-58
2023/03/20 06:06:37;;;;;;;;;;;;;;;7.99;55.74;94916.94;5140934;23;20007;-59
2023/03/20 06:08:39;;;;;;;;;;;;;;;8.09;56.09;94916.94;5141923;23;19920;-60
2023/03/20 06:10:40;;;;;;;;;;;;;;;8.11;55.63;94920.25;5141936;23;19963;-61
2023/03/20 06:12:42;;;;;;;;;;;;;;;8.14;55.53;94921.75;5142349;23;19968;-60
2023/03/20 06:14:44;;;;;;;;;;;;;;;8.23;55.44;94926.13;5141835;23;19920;-59
2023/03/20 06:16:45;;;;;;;;;;;;;;;8.29;55.18;94927.38;5142030;23;19970;-58
2023/03/20 06:18:48;;;;;;;;;;;;;;;8.33;55.02;94919.13;5141902;23;19958;-58
2023/03/20 06:20:52;;;;;;;;;;;;;;;8.36;55.12;94925.84;5140867;23;20347;-58
2023/03/20 06:22:54;;;;;;;;;;;;;;;8.32;54.58;94924.47;5141508;23;19920;-58
2023/03/20 06:24:56;;;;;;;;;;;;;;;8.23;54.89;94923.50;5141218;23;20390;-59
2023/03/20 06:26:58;;;;;;;;;;;;;;;8.26;54.99;94925.03;5142296;23;19983;-59
2023/03/20 06:28:59;;;;;;;;;;;;;;;8.24;55.30;94930.41;5141952;23;19919;-60
2023/03/20 06:31:01;;;;;;;;;;;;;;;8.25;54.93;94929.41;5141523;23;19920;-58
2023/03/20 06:33:03;;;;;;;;;;;;;;;8.30;55.18;94929.84;5141677;23;20270;-56
2023/03/20 06:35:05;;;;;;;;;;;;;;;8.34;54.33;94930.38;5140639;23;19920;-57
2023/03/20 06:37:06;;;;;;;;;;;;;;;8.39;54.44;94933.41;5141340;23;20461;-59
2023/03/20 06:39:08;;;;;;;;;;;;;;;8.45;53.95;94939.88;5141844;23;19919;-60
2023/03/20 06:41:10;;;;;;;;;;;;;;;8.55;53.86;94931.06;5142345;23;20304;-59
2023/03/20 06:43:19;;;;;;;;;;;;;;;8.65;53.92;94940.63;5142182;23;20346;-60
2023/03/20 06:45:21;;;;;;;;;;;;;;;8.73;53.41;94933.78;5141233;23;19947;-57
2023/03/20 06:47:22;;;;;;;;;;;;;;;8.85;53.76;94925.75;5141190;23;19987;-57
2023/03/20 06:49:24;;;;;;;;;;;;;;;8.92;53.77;94926.81;5142143;23;19920;-57
2023/03/20 06:51:26;;;;;;;;;;;;;;;8.98;53.51;94932.28;5113889;23;19924;-56
2023/03/20 06:53:27;;;;;;;;;;;;;;;9.05;52.71;94922.09;5141252;23;19920;-59
2023/03/20 06:55:29;;;;;;;;;;;;;;;9.17;53.01;94918.34;5115428;23;19950;-60
2023/03/20 06:57:31;;;;;;;;;;;;;;;9.32;52.79;94917.84;5142082;23;19932;-60
2023/03/20 06:59:33;;;;;;;;;;;;;;;9.44;52.39;94921.91;5141565;23;19994;-58
2023/03/20 07:01:34;;;;;;;;;;;;;;;9.57;51.99;94913.69;5141769;23;20450;-57
2023/03/20 07:03:36;;;;;;;;;;;;;;;9.64;52.25;94922.63;5141419;23;20362;-58
2023/03/20 07:05:39;;;;;;;;;;;;;;;9.70;52.36;94916.81;5140702;23;19959;-60
2023/03/20 07:07:40;;;;;;;;;;;;;;;9.74;52.22;94917.31;5140868;23;19920;-57
2023/03/20 07:09:42;;;;;;;;;;;;;;;9.82;52.09;94909.53;5141133;23;20002;-60
2023/03/20 07:11:44;;;;;;;;;;;;;;;9.95;51.98;94909.97;5140925;23;19920;-59
2023/03/20 07:13:46;;;;;;;;;;;;;;;9.92;51.95;94909.47;5141729;23;19987;-60
2023/03/20 07:15:50;;;;;;;;;;;;;;;9.90;52.07;94914.84;5141426;23;19920;-59
2023/03/20 07:18:05;;;;;;;;;;;;;;;9.90;51.61;94908.81;5118041;23;20443;-59
2023/03/20 07:20:07;;;;;;;;;;;;;;;9.84;51.77;94903.19;5140200;23;19920;-59
2023/03/20 07:22:10;;;;;;;;;;;;;;;9.91;51.74;94907.81;5141300;23;19927;-60
2023/03/20 07:24:12;;;;;;;;;;;;;;;9.91;51.65;94908.63;5114103;23;20307;-60
2023/03/20 07:26:14;;;;;;;;;;;;;;;9.76;51.24;94910.94;5141654;23;19924;-60
2023/03/20 07:28:16;;;;;;;;;;;;;;;9.69;52.14;94909.91;5141664;23;20014;-61
2023/03/20 07:30:17;;;;;;;;;;;;;;;9.71;52.31;94907.16;5141118;23;19920;-61
2023/03/20 07:32:19;;;;;;;;;;;;;;;9.73;52.54;94910.44;5141391;23;19964;-58
2023/03/20 07:34:21;;;;;;;;;;;;;;;9.70;52.35;94908.94;5141592;23;19951;-59
2023/03/20 07:36:22;;;;;;;;;;;;;;;9.78;52.42;94913.44;5140010;23;20330;-61
2023/03/20 07:38:24;;;;;;;;;;;;;;;9.84;52.36;94907.59;5140773;23;19944;-60
2023/03/20 07:40:26;;;;;;;;;;;;;;;10.03;51.76;94911.88;5141188;23;19920;-61
2023/03/20 07:42:27;;;;;;;;;;;;;;;10.15;51.21;94901.97;5141477;23;19946;-61
2023/03/20 07:44:29;;;;;;;;;;;;;;;10.14;51.35;94909.00;5141115;23;19931;-60
2023/03/20 07:46:30;;;;;;;;;;;;;;;10.19;50.82;94904.13;5141309;23;19920;-60
2023/03/20 07:48:32;;;;;;;;;;;;;;;10.32;50.74;94910.81;5140828;23;19928;-59
2023/03/20 07:50:34;;;;;;;;;;;;;;;10.21;51.00;94915.28;5139700;23;19970;-59
2023/03/20 07:52:35;;;;;;;;;;;;;;;10.28;51.32;94914.66;5114451;23;20275;-59
2023/03/20 07:54:37;;;;;;;;;;;;;;;10.31;50.92;94914.41;5140326;23;19928;-61
2023/03/20 07:56:39;;;;;;;;;;;;;;;10.32;51.01;94914.25;5141537;23;19987;-58
2023/03/20 07:58:40;;;;;;;;;;;;;;;10.44;50.66;94904.38;5141162;23;19920;-62
2023/03/20 08:00:42;;;;;;;;;;;;;;;10.68;50.78;94905.50;5141169;23;19927;-60
2023/03/20 08:02:44;;;;;;;;;;;;;;;10.58;50.74;94909.06;5141324;23;19924;-59
2023/03/20 08:04:46;;;;;;;;;;;;;;;10.76;50.90;94908.19;5140500;23;19966;-56
2023/03/20 08:06:48;;;;;;;;;;;;;;;10.82;50.13;94915.41;5140323;23;19937;-61
2023/03/20 08:08:51;;;;;;;;;;;;;;;10.94;50.13;94910.72;5140822;23;19920;-60
2023/03/20 08:10:52;;;;;;;;;;;;;;;10.77;50.15;94912.41;5141167;23;19923;-62
2023/03/20 08:12:55;;;;;;;;;;;;;;;10.80;50.02;94901.66;5141445;23;19964;-61
2023/03/20 08:14:56;;;;;;;;;;;;;;;10.77;49.90;94905.38;5140940;23;19947;-62
2023/03/20 08:16:58;;;;;;;;;;;;;;;10.83;50.21;94903.94;5141083;23;19920;-61
2023/03/20 08:19:14;;;;;;;;;;;;;;;10.97;49.77;94907.78;5141224;23;19919;-59
2023/03/20 08:21:16;;;;;;;;;;;;;;;10.94;49.76;94905.47;5140022;23;19926;-60
2023/03/20 08:23:18;;;;;;;;;;;;;;;11.11;49.54;94898.53;5140572;23;19974;-59
2023/03/20 08:25:21;;;;;;;;;;;;;;;11.23;48.95;94903.31;5141212;23;19924;-62
2023/03/20 08:27:22;;;;;;;;;;;;;;;11.27;48.45;94903.81;5141152;23;19924;-60
2023/03/20 08:29:24;;;;;;;;;;;;;;;11.18;48.69;94907.38;5141776;23;20003;-62
2023/03/20 08:31:25;;;;;;;;;;;;;;;11.35;48.97;94908.28;5141021;23;19920;-57
2023/03/20 08:33:27;;;;;;;;;;;;;;;11.42;47.90;94914.53;5141522;23;20289;-61
2023/03/20 08:35:28;;;;;;;;;;;;;;;11.36;47.66;94916.00;5140869;23;19920;-59
2023/03/20 08:37:46;;;;;;;;;;;;;;;11.25;48.57;94908.41;5140915;23;19958;-62
2023/03/20 08:39:48;;;;;;;;;;;;;;;11.44;48.23;94913.41;5114519;23;19924;-61
2023/03/20 08:41:49;;;;;;;;;;;;;;;11.47;47.66;94901.78;5141350;23;20381;-60
2023/03/20 08:43:51;;;;;;;;;;;;;;;11.59;47.39;94910.16;5141539;23;19919;-59
2023/03/20 08:45:52;;;;;;;;;;;;;;;11.55;47.16;94907.03;5141661;23;20358;-58
2023/03/20 08:47:54;;;;;;;;;;;;;;;11.50;47.16;94900.63;5141096;23;20019;-61
2023/03/20 08:49:55;;;;;;;;;;;;;;;11.44;47.54;94892.41;5139677;23;19930;-60
2023/03/20 08:51:57;;;;;;;;;;;;;;;11.43;47.20;94900.44;5140380;23;19963;-58
2023/03/20 08:53:58;;;;;;;;;;;;;;;11.38;47.47;94898.31;5140504;23;19920;-58
2023/03/20 08:56:00;;;;;;;;;;;;;;;11.71;47.16;94908.06;5141305;23;19919;-62
2023/03/20 08:58:02;;;;;;;;;;;;;;;11.98;46.29;94902.56;5141057;23;19924;-60
2023/03/20 09:00:05;;;;;;;;;;;;;;;12.00;46.36;94908.47;5141887;23;19920;-59
2023/03/20 09:02:09;;;;;;;;;;;;;;;12.12;45.77;94900.28;5142996;23;19927;-60
2023/03/20 09:04:12;;;;;;;;;;;;;;;12.37;45.79;94891.41;5116864;23;20505;-60
2023/03/20 09:06:13;;;;;;;;;;;;;;;12.58;45.22;94900.56;5141825;23;19927;-62
2023/03/20 09:08:15;;;;;;;;;;;;;;;12.72;44.64;94891.19;5141636;23;19950;-61
2023/03/20 09:10:16;;;;;;;;;;;;;;;12.48;45.23;94896.31;5143145;23;19920;-61
2023/03/20 09:12:18;;;;;;;;;;;;;;;12.52;45.52;94885.47;5142647;23;19924;-62
2023/03/20 09:14:20;;;;;;;;;;;;;;;12.73;44.94;94893.66;5142952;23;19920;-61
2023/03/20 09:16:21;;;;;;;;;;;;;;;12.93;44.57;94882.75;5142676;23;19931;-60
2023/03/20 09:18:23;;;;;;;;;;;;;;;12.95;44.47;94881.63;5142388;23;19920;-58
2023/03/20 09:20:24;;;;;;;;;;;;;;;13.21;44.59;94877.91;5141513;23;19920;-59
2023/03/20 09:22:26;;;;;;;;;;;;;;;13.40;43.02;94877.53;5142056;23;19920;-58
2023/03/20 09:24:28;;;;;;;;;;;;;;;13.65;43.10;94872.94;5141923;23;20007;-60
2023/03/20 09:26:29;;;;;;;;;;;;;;;13.66;42.81;94871.16;5142642;23;19920;-60
2023/03/20 09:28:31;;;;;;;;;;;;;;;13.74;43.03;94868.44;5142383;23;19982;-60
2023/03/20 09:30:32;;;;;;;;;;;;;;;13.82;42.66;94870.22;5142595;23;19950;-59
2023/03/20 09:32:35;;;;;;;;;;;;;;;13.95;42.18;94864.38;5142031;23;20011;-60
2023/03/20 09:34:36;;;;;;;;;;;;;;;13.79;42.63;94860.84;5142445;23;19919;-62
2023/03/20 09:36:38;;;;;;;;;;;;;;;13.90;42.41;94854.34;5140720;23;19923;-61
2023/03/20 09:38:40;;;;;;;;;;;;;;;14.13;42.23;94856.97;5141713;23;20390;-62
2023/03/20 09:40:50;;;;;;;;;;;;;;;14.22;42.17;94855.91;5142470;23;19920;-62
2023/03/20 09:42:53;;;;;;;;;;;;;;;14.26;42.17;94849.31;5142537;23;19920;-61
2023/03/20 09:45:14;;;;;;;;;;;;;;;14.42;42.23;94848.31;5115396;23;19928;-60
2023/03/20 09:47:16;;;;;;;;;;;;;;;14.67;41.61;94843.69;5142215;23;19966;-61
2023/03/20 09:49:22;;;;;;;;;;;;;;;14.89;40.83;94835.88;5142753;23;19920;-59
2023/03/20 09:51:43;;;;;;;;;;;;;;;15.07;40.43;94827.56;5140297;23;20225;-60
2023/03/20 09:53:53;;;;;;;;;;;;;;;15.15;39.98;94817.72;5141106;23;19920;-61
2023/03/20 09:55:55;;;;;;;;;;;;;;;15.16;40.15;94818.53;5115831;23;19924;-61
2023/03/20 09:57:58;;;;;;;;;;;;;;;15.29;40.09;94817.88;5115961;23;19955;-60
2023/03/20 10:00:06;;;;;;;;;;;;;;;15.04;39.78;94809.47;5115859;23;19928;-60
2023/03/20 10:02:15;;;;;;;;;;;;;;;14.79;40.59;94801.03;5141856;23;19927;-57
2023/03/20 10:04:17;;;;;;;;;;;;;;;14.57;41.48;94800.13;5115558;23;19951;-61
2023/03/20 10:06:19;;;;;;;;;;;;;;;14.70;41.30;94792.38;5140920;23;19970;-60
2023/03/20 10:08:21;;;;;;;;;;;;;;;14.85;41.03;94795.84;5141826;23;19931;-61
2023/03/20 10:10:24;;;;;;;;;;;;;;;15.04;40.95;94783.91;5115681;23;19994;-62
2023/03/20 10:12:41;;;;;;;;;;;;;;;15.29;40.81;94788.84;5142047;23;19923;-59
2023/03/20 10:14:57;;;;;;;;;;;;;;;15.52;39.89;94784.22;5115455;23;19921;-62
2023/03/20 10:16:59;;;;;;;;;;;;;;;15.48;39.47;94790.09;5115900;23;20364;-61
2023/03/20 10:19:02;;;;;;;;;;;;;;;15.47;39.32;94784.00;5142403;23;20327;-62
2023/03/20 10:21:04;;;;;;;;;;;;;;;15.40;39.61;94787.56;5140504;23;20031;-62
2023/03/20 10:23:06;;;;;;;;;;;;;;;15.05;40.39;94780.25;5140900;23;19919;-60
2023/03/20 10:25:43;;;;;;;;;;;;;;;15.11;40.36;94789.25;5142002;23;20235;-61
2023/03/20 10:27:52;;;;;;;;;;;;;;;15.41;39.62;94779.44;5041343;23;20468;-61
2023/03/20 10:30:12;;;;;;;;;;;;;;;15.63;39.05;94774.19;5102861;23;19930;-62
2023/03/20 10:32:20;;;;;;;;;;;;;;;15.83;38.49;94767.31;5142195;23;19928;-62
2023/03/20 10:34:21;;;;;;;;;;;;;;;15.75;38.36;94765.59;5115473;23;19925;-60
2023/03/20 10:36:22;;;;;;;;;;;;;;;15.75;38.72;94767.44;5140183;23;19942;-63
2023/03/20 10:38:43;;;;;;;;;;;;;;;15.92;38.88;94760.88;5141498;23;20291;-62
2023/03/20 10:40:44;;;;;;;;;;;;;;;16.23;38.76;94758.88;5141508;23;19960;-64
2023/03/20 10:42:46;;;;;;;;;;;;;;;16.40;38.17;94757.56;5142209;23;19930;-64
2023/03/20 10:44:50;;;;;;;;;;;;;;;16.58;37.66;94749.97;5115278;23;19920;-59
2023/03/20 10:46:52;;;;;;;;;;;;;;;16.56;37.34;94743.22;5115208;23;19959;-60
2023/03/20 10:48:56;;;;;;;;;;;;;;;16.45;37.25;94747.22;5115616;23;20378;-60